createdAt,value
2018-09-05T00:02:14.425Z,17.00
2018-09-05T00:07:18.764Z,16.50
2018-09-05T00:12:22.787Z,16.90
2018-09-05T00:17:26.704Z,17.33
2018-09-05T00:22:30.571Z,17.03
2018-09-05T00:27:34.358Z,15.93
2018-09-05T00:32:38.259Z,16.47
2018-09-05T00:37:42.712Z,14.93
2018-09-05T00:42:46.831Z,14.10
2018-09-05T00:47:50.997Z,14.63
2018-09-05T00:52:54.814Z,14.33
2018-09-05T01:03:37.536Z,14.40
2018-09-05T01:08:44.924Z,14.43
2018-09-05T01:13:48.792Z,14.83
2018-09-05T01:19:14.916Z,13.80
2018-09-05T01:24:18.775Z,14.17
2018-09-05T01:29:27.108Z,14.97
2018-09-05T01:34:31.560Z,13.40
2018-09-05T01:39:38.549Z,13.63
2018-09-05T01:44:42.275Z,14.00
2018-09-05T01:49:46.475Z,14.80
2018-09-05T01:54:50.377Z,15.83
2018-09-05T01:59:54.394Z,14.47
2018-09-05T02:04:58.063Z,13.90
2018-09-05T02:10:01.900Z,15.53
2018-09-05T02:15:05.535Z,15.50
2018-09-05T02:20:10.522Z,15.33
2018-09-05T02:25:14.376Z,15.07
2018-09-05T02:30:18.171Z,13.93
2018-09-05T02:35:22.099Z,15.10
2018-09-05T02:40:26.544Z,15.40
2018-09-05T02:45:38.273Z,14.67
2018-09-05T02:50:41.956Z,16.23
2018-09-05T02:55:50.850Z,15.53
2018-09-05T03:00:54.866Z,17.50
2018-09-05T03:05:59.092Z,17.87
2018-09-05T03:11:02.897Z,18.53
2018-09-05T03:16:06.739Z,17.80
2018-09-05T03:21:11.565Z,17.87
2018-09-05T03:26:15.689Z,18.27
2018-09-05T03:31:19.583Z,18.60
2018-09-05T03:36:23.340Z,19.47
2018-09-05T03:41:27.759Z,18.80
2018-09-05T03:46:31.686Z,19.93
2018-09-05T03:51:36.172Z,18.77
2018-09-05T03:57:02.155Z,19.30
2018-09-05T04:02:06.128Z,19.20
2018-09-05T04:07:09.879Z,19.30
2018-09-05T04:12:13.645Z,19.87
2018-09-05T04:17:17.703Z,19.37
2018-09-05T04:22:21.742Z,19.90
2018-09-05T04:27:25.821Z,20.73
2018-09-05T04:32:29.915Z,19.60
2018-09-05T04:37:33.768Z,20.13
2018-09-05T04:42:37.674Z,19.87
2018-09-05T04:47:41.705Z,21.13
2018-09-05T04:52:45.513Z,20.07
2018-09-05T04:57:50.038Z,21.03
2018-09-05T05:02:53.944Z,22.07
2018-09-05T05:08:03.853Z,22.03
2018-09-05T05:13:07.491Z,20.93
2018-09-05T05:18:11.287Z,21.77
2018-09-05T05:23:15.617Z,22.87
2018-09-05T05:28:19.540Z,20.23
2018-09-05T05:33:23.677Z,20.70
2018-09-05T05:38:34.068Z,22.33
2018-09-05T05:43:37.918Z,21.27
2018-09-05T05:48:41.980Z,23.87
2018-09-05T05:53:45.896Z,21.90
2018-09-05T06:04:21.071Z,21.93
2018-09-05T06:09:44.480Z,21.60
2018-09-05T06:14:48.098Z,24.20
2018-09-05T06:19:58.396Z,25.43
2018-09-05T06:25:02.380Z,25.83
2018-09-05T06:30:06.541Z,27.10
2018-09-05T06:35:10.890Z,27.43
2018-09-05T06:40:15.219Z,26.10
2018-09-05T06:45:19.210Z,27.23
2018-09-05T06:50:23.629Z,25.47
2018-09-05T06:55:27.305Z,27.00
2018-09-05T07:00:31.075Z,25.90
2018-09-05T07:05:35.259Z,26.07
2018-09-05T07:10:39.180Z,30.13
2018-09-05T07:15:42.890Z,32.70
2018-09-05T07:20:47.103Z,32.33
2018-09-05T07:25:51.180Z,33.37
2018-09-05T07:30:55.555Z,32.37
2018-09-05T07:35:59.803Z,31.23
2018-09-05T07:41:04.044Z,36.23
2018-09-05T07:46:08.451Z,33.27
2018-09-05T07:51:12.272Z,35.23
2018-09-05T07:56:15.966Z,34.73
2018-09-05T08:01:20.031Z,35.47
2018-09-05T08:06:24.421Z,33.13
2018-09-05T08:11:28.619Z,33.93
2018-09-05T08:16:32.759Z,19.13
2018-09-05T08:21:36.501Z,33.50
2018-09-05T08:26:40.772Z,32.90
2018-09-05T08:31:44.932Z,31.83
2018-09-05T08:36:49.288Z,34.23
2018-09-05T08:41:52.845Z,29.97
2018-09-05T08:46:57.252Z,29.23
2018-09-05T08:52:01.133Z,30.83
2018-09-05T08:57:04.934Z,32.50
2018-09-05T09:02:08.712Z,28.13
2018-09-05T09:07:12.499Z,28.13
2018-09-05T09:12:16.524Z,26.20
2018-09-05T09:17:20.488Z,26.17
2018-09-05T09:22:24.315Z,29.73
2018-09-05T09:27:28.388Z,26.23
2018-09-05T09:32:32.289Z,24.77
2018-09-05T09:37:36.281Z,26.37
2018-09-05T09:42:40.358Z,22.90
2018-09-05T09:47:44.348Z,24.53
2018-09-05T09:52:48.372Z,26.33
2018-09-05T09:57:57.659Z,26.07
2018-09-05T10:03:07.026Z,30.77
2018-09-05T10:09:14.884Z,29.77
2018-09-05T10:14:42.900Z,25.37
2018-09-05T10:19:50.936Z,30.83
2018-09-05T10:24:56.116Z,29.47
2018-09-05T10:29:59.936Z,28.40
2018-09-05T10:35:03.779Z,25.67
2018-09-05T10:40:08.068Z,22.03
2018-09-05T10:45:12.256Z,20.73
2018-09-05T10:50:16.248Z,17.20
2018-09-05T10:55:20.007Z,20.03
2018-09-05T11:00:24.031Z,16.07
2018-09-05T11:05:28.152Z,19.23
2018-09-05T11:10:56.172Z,15.97
2018-09-05T11:16:00.167Z,15.03
2018-09-05T11:21:04.145Z,14.13
2018-09-05T11:26:07.852Z,15.60
2018-09-05T11:31:11.957Z,14.50
2018-09-05T11:36:15.644Z,15.80
2018-09-05T11:41:19.900Z,16.43
2018-09-05T11:46:26.380Z,15.60
2018-09-05T11:51:30.193Z,13.30
2018-09-05T11:56:33.847Z,14.50
2018-09-05T12:01:37.474Z,12.83
2018-09-05T12:06:41.517Z,14.17
2018-09-05T12:11:48.244Z,13.47
2018-09-05T12:16:51.995Z,11.20
2018-09-05T12:21:55.898Z,13.83
2018-09-05T12:27:00.689Z,12.37
2018-09-05T12:32:04.691Z,11.53
2018-09-05T12:37:08.713Z,12.37
2018-09-05T12:42:12.687Z,13.00
2018-09-05T12:47:19.842Z,14.50
2018-09-05T12:52:23.530Z,12.53
2018-09-05T12:57:27.377Z,10.27
2018-09-05T13:02:31.395Z,10.33
2018-09-05T13:07:35.293Z,11.80
2018-09-05T13:12:39.592Z,12.37
2018-09-05T13:17:43.516Z,10.67
2018-09-05T13:22:47.326Z,11.80
2018-09-05T13:27:51.099Z,11.73
2018-09-05T13:32:54.933Z,11.13
2018-09-05T13:37:58.866Z,12.73
2018-09-05T13:43:02.629Z,11.43
2018-09-05T13:48:06.588Z,10.83
2018-09-05T13:53:10.756Z,11.03
2018-09-05T13:58:14.928Z,9.63
2018-09-05T14:03:18.740Z,9.33
2018-09-05T14:08:22.712Z,9.68
2018-09-05T14:13:26.671Z,9.20
2018-09-05T14:18:30.471Z,9.90
2018-09-05T14:23:34.265Z,10.67
2018-09-05T14:28:38.019Z,10.18
2018-09-05T14:33:41.968Z,10.00
2018-09-05T14:38:46.144Z,9.77
2018-09-05T14:43:50.062Z,10.20
2018-09-05T14:48:53.920Z,10.03
2018-09-05T14:53:58.200Z,10.40
2018-09-05T14:59:02.527Z,10.23
2018-09-05T15:04:06.326Z,10.43
2018-09-05T15:14:42.379Z,8.60
2018-09-05T15:19:46.036Z,8.20
2018-09-05T15:24:50.300Z,7.77
2018-09-05T15:29:54.443Z,7.92
2018-09-05T15:34:58.428Z,7.35
2018-09-05T15:40:02.341Z,8.58
2018-09-05T15:45:06.202Z,8.17
2018-09-05T15:50:09.964Z,8.20
2018-09-05T15:55:14.651Z,8.17
2018-09-05T16:00:18.399Z,7.80
2018-09-05T16:05:22.732Z,7.90
2018-09-05T16:10:26.652Z,8.93
2018-09-05T16:15:30.662Z,8.03
2018-09-05T16:20:35.012Z,7.73
2018-09-05T16:25:38.871Z,7.70
2018-09-05T16:30:42.712Z,6.80
2018-09-05T16:35:46.464Z,7.00
2018-09-05T16:40:50.634Z,7.23
2018-09-05T16:45:54.940Z,6.93
2018-09-05T16:50:58.692Z,6.53
2018-09-05T16:56:03.390Z,6.47
2018-09-05T17:01:07.128Z,6.43
2018-09-05T17:06:10.795Z,6.13
2018-09-05T17:11:14.701Z,6.50
2018-09-05T17:16:18.777Z,6.07
2018-09-05T17:21:22.456Z,6.63
2018-09-05T17:26:26.695Z,6.17
2018-09-05T17:31:30.360Z,6.40
2018-09-05T17:36:34.215Z,6.37
2018-09-05T17:41:38.723Z,5.63
2018-09-05T17:46:42.704Z,5.77
2018-09-05T17:51:46.600Z,6.47
2018-09-05T17:56:50.407Z,5.87
2018-09-05T18:01:54.080Z,5.57
2018-09-05T18:06:57.929Z,6.23
2018-09-05T18:12:01.880Z,6.60
2018-09-05T18:17:05.512Z,5.53
2018-09-05T18:22:09.929Z,6.70
2018-09-05T18:27:13.598Z,6.47
2018-09-05T18:32:17.670Z,6.20
2018-09-05T18:42:50.052Z,5.63
2018-09-05T18:47:53.830Z,5.50
2018-09-05T18:53:02.941Z,5.77
2018-09-05T19:03:44.870Z,5.63
2018-09-05T19:08:49.396Z,5.67
2018-09-05T19:13:53.138Z,6.10
2018-09-05T19:19:00.355Z,5.97
2018-09-05T19:24:04.382Z,5.93
2018-09-05T19:29:08.340Z,5.60
2018-09-05T19:34:12.826Z,5.67
2018-09-05T19:39:17.495Z,5.30
2018-09-05T19:44:21.494Z,5.73
2018-09-05T19:49:25.170Z,5.60
2018-09-05T19:54:28.971Z,5.30
2018-09-05T19:59:32.991Z,5.87
2018-09-05T20:04:36.701Z,6.00
2018-09-05T20:09:40.537Z,5.47
2018-09-05T20:14:44.493Z,5.80
2018-09-05T20:19:48.183Z,5.83
2018-09-05T20:24:52.292Z,5.53
2018-09-05T20:29:57.118Z,5.57
2018-09-05T20:35:01.052Z,6.13
2018-09-05T20:40:05.055Z,5.37
2018-09-05T20:45:08.984Z,5.50
2018-09-05T20:50:13.037Z,6.00
2018-09-05T20:55:17.350Z,5.43
2018-09-05T21:00:20.950Z,5.30
2018-09-05T21:05:25.006Z,5.60
2018-09-05T21:10:28.915Z,6.10
2018-09-05T21:15:32.768Z,5.97
2018-09-05T21:20:36.884Z,5.63
2018-09-05T21:25:41.126Z,5.30
2018-09-05T21:30:45.008Z,5.60
2018-09-05T21:35:48.844Z,5.50
2018-09-05T21:40:52.637Z,5.60
2018-09-05T21:45:56.976Z,6.17
2018-09-05T21:51:00.814Z,5.80
2018-09-05T21:56:04.662Z,6.13
2018-09-05T22:01:08.372Z,5.73
2018-09-05T22:06:12.201Z,6.30
2018-09-05T22:11:21.118Z,6.10
2018-09-05T22:16:25.488Z,6.20
2018-09-05T22:21:29.906Z,6.43
2018-09-05T22:26:33.704Z,6.00
2018-09-05T22:31:37.467Z,5.83
2018-09-05T22:36:41.447Z,5.93
2018-09-05T22:41:45.634Z,5.97
2018-09-05T22:47:00.483Z,6.03
2018-09-05T22:53:20.553Z,6.57
2018-09-05T22:58:39.936Z,6.27
2018-09-05T23:03:54.986Z,6.00
2018-09-05T23:09:04.892Z,6.30
2018-09-05T23:14:26.166Z,6.10
2018-09-05T23:25:10.372Z,5.93
2018-09-05T23:30:14.512Z,6.20
2018-09-05T23:35:19.038Z,6.40
2018-09-05T23:40:23.180Z,6.33
2018-09-05T23:45:26.898Z,6.30
2018-09-05T23:50:30.819Z,6.33
2018-09-05T23:55:34.595Z,6.13
